createdAt,value
2024-04-13T00:00:44.638Z,96.95
2024-04-13T00:03:12.656Z,97.13
2024-04-13T00:05:40.600Z,97.29
2024-04-13T00:08:08.522Z,97.87
2024-04-13T00:10:38.208Z,97.61
2024-04-13T00:13:06.204Z,97.21
2024-04-13T00:15:34.130Z,97.56
2024-04-13T00:18:02.110Z,96.90
2024-04-13T00:20:29.998Z,97.80
2024-04-13T00:22:57.788Z,97.41
2024-04-13T00:25:25.613Z,97.62
2024-04-13T00:27:53.647Z,97.31
2024-04-13T00:30:21.478Z,97.03
2024-04-13T00:32:49.803Z,97.28
2024-04-13T00:35:17.663Z,97.03
2024-04-13T00:37:45.484Z,97.25
2024-04-13T00:40:13.332Z,97.32
2024-04-13T00:42:41.120Z,98.05
2024-04-13T00:45:09.699Z,98.11
2024-04-13T00:47:39.042Z,97.47
2024-04-13T00:50:13.766Z,98.54
2024-04-13T00:52:45.827Z,98.07
2024-04-13T00:55:14.260Z,98.08
2024-04-13T00:57:44.042Z,98.12
2024-04-13T01:00:14.324Z,97.90
2024-04-13T01:02:45.363Z,96.26
2024-04-13T01:05:15.695Z,96.71
2024-04-13T01:07:44.223Z,97.35
2024-04-13T01:10:18.422Z,96.92
2024-04-13T01:12:47.857Z,96.98
2024-04-13T01:15:18.282Z,97.25
2024-04-13T01:17:48.623Z,97.35
2024-04-13T01:20:16.626Z,97.00
2024-04-13T01:22:52.197Z,97.29
2024-04-13T01:25:23.462Z,97.39
2024-04-13T01:27:51.470Z,97.88
2024-04-13T01:30:24.025Z,98.01
2024-04-13T01:32:53.400Z,97.52
2024-04-13T01:35:21.534Z,96.69
2024-04-13T01:37:49.341Z,96.26
2024-04-13T01:40:17.202Z,96.52
2024-04-13T01:42:47.958Z,96.94
2024-04-13T01:45:15.923Z,97.35
2024-04-13T01:47:43.822Z,96.78
2024-04-13T01:50:14.059Z,97.51
2024-04-13T01:52:41.978Z,97.39
2024-04-13T01:55:09.935Z,96.62
2024-04-13T01:57:37.794Z,96.65
2024-04-13T02:00:06.885Z,96.62
2024-04-13T02:02:34.856Z,96.83
2024-04-13T02:05:03.186Z,96.82
2024-04-13T02:07:31.160Z,96.71
2024-04-13T02:09:59.016Z,96.90
2024-04-13T02:12:27.312Z,97.35
2024-04-13T02:14:56.169Z,96.95
2024-04-13T02:17:24.254Z,97.43
2024-04-13T02:19:52.109Z,97.50
2024-04-13T02:22:20.170Z,97.34
2024-04-13T02:24:48.038Z,98.21
2024-04-13T02:27:16.174Z,98.29
2024-04-13T02:29:45.089Z,97.76
2024-04-13T02:32:13.053Z,98.37
2024-04-13T02:34:41.512Z,97.91
2024-04-13T02:37:09.391Z,97.35
2024-04-13T02:39:39.145Z,97.85
2024-04-13T02:42:08.456Z,98.11
2024-04-13T02:44:36.612Z,98.68
2024-04-13T02:47:04.503Z,98.78
2024-04-13T02:49:32.425Z,98.42
2024-04-13T02:52:00.400Z,98.78
2024-04-13T02:54:28.510Z,98.68
2024-04-13T02:56:57.360Z,98.82
2024-04-13T02:59:25.166Z,99.19
2024-04-13T03:01:52.973Z,99.27
2024-04-13T03:04:20.964Z,99.58
2024-04-13T03:06:48.972Z,98.57
2024-04-13T03:09:16.824Z,99.38
2024-04-13T03:11:46.132Z,99.61
2024-04-13T03:14:14.148Z,99.96
2024-04-13T03:16:41.989Z,99.34
2024-04-13T03:19:09.801Z,99.91
2024-04-13T03:21:38.099Z,100.00
2024-04-13T03:24:06.246Z,99.72
2024-04-13T03:26:34.085Z,99.86
2024-04-13T03:29:01.926Z,99.35
2024-04-13T03:31:29.790Z,100.00
2024-04-13T03:34:04.196Z,100.00
2024-04-13T03:36:37.338Z,100.00
2024-04-13T03:39:05.373Z,100.00
2024-04-13T03:41:33.188Z,100.00
2024-04-13T03:44:00.999Z,100.00
2024-04-13T03:46:28.828Z,100.00
2024-04-13T03:48:56.723Z,100.00
2024-04-13T03:51:24.573Z,100.00
2024-04-13T03:53:52.421Z,100.00
2024-04-13T03:56:20.266Z,100.00
2024-04-13T03:58:48.611Z,100.00
2024-04-13T04:01:16.490Z,100.00
2024-04-13T04:03:44.378Z,100.00
2024-04-13T04:06:12.343Z,100.00
2024-04-13T04:08:40.583Z,100.00
2024-04-13T04:11:08.412Z,100.00
2024-04-13T04:13:36.268Z,100.00
2024-04-13T04:16:04.203Z,100.00
2024-04-13T04:18:32.218Z,100.00
2024-04-13T04:21:00.081Z,100.00
2024-04-13T04:23:27.906Z,99.64
2024-04-13T04:25:55.705Z,100.00
2024-04-13T04:28:23.543Z,100.00
2024-04-13T04:30:51.860Z,100.00
2024-04-13T04:33:19.834Z,99.36
2024-04-13T04:35:47.735Z,98.99
2024-04-13T04:38:16.248Z,99.43
2024-04-13T04:40:44.079Z,100.00
2024-04-13T04:43:11.866Z,100.00
2024-04-13T04:45:39.884Z,99.82
2024-04-13T04:48:10.230Z,96.90
2024-04-13T04:50:38.238Z,91.34
2024-04-13T04:53:06.192Z,82.86
2024-04-13T04:55:35.475Z,77.31
2024-04-13T04:58:03.376Z,73.17
2024-04-13T05:00:31.246Z,74.55
2024-04-13T05:02:59.129Z,74.57
2024-04-13T05:05:26.938Z,76.33
2024-04-13T05:07:56.509Z,77.56
2024-04-13T05:10:25.887Z,79.43
2024-04-13T05:12:53.747Z,82.73
2024-04-13T05:15:21.608Z,82.19
2024-04-13T05:17:49.483Z,82.86
2024-04-13T05:20:17.431Z,84.19
2024-04-13T05:22:45.246Z,87.13
2024-04-13T05:25:13.140Z,87.46
2024-04-13T05:27:41.235Z,89.00
2024-04-13T05:30:11.780Z,89.14
2024-04-13T05:32:39.686Z,89.09
2024-04-13T05:35:07.779Z,87.63
2024-04-13T05:37:35.993Z,85.91
2024-04-13T05:40:05.936Z,86.20
2024-04-13T05:42:33.931Z,83.13
2024-04-13T05:45:01.838Z,82.25
2024-04-13T05:47:29.667Z,83.91
2024-04-13T05:49:57.528Z,82.15
2024-04-13T05:52:25.378Z,83.43
2024-04-13T05:54:54.072Z,83.43
2024-04-13T05:57:21.904Z,84.10
2024-04-13T05:59:49.751Z,84.32
2024-04-13T06:02:17.707Z,84.33
2024-04-13T06:04:45.563Z,85.70
2024-04-13T06:07:13.377Z,85.52
2024-04-13T06:09:41.365Z,86.50
2024-04-13T06:12:09.445Z,86.49
2024-04-13T06:14:39.825Z,86.23
2024-04-13T06:17:07.788Z,85.10
2024-04-13T06:19:35.760Z,86.18
2024-04-13T06:22:03.613Z,87.11
2024-04-13T06:24:31.483Z,87.41
2024-04-13T06:27:00.060Z,88.15
2024-04-13T06:29:27.908Z,90.04
2024-04-13T06:31:55.849Z,91.55
2024-04-13T06:34:23.696Z,90.88
2024-04-13T06:36:51.600Z,89.94
2024-04-13T06:39:19.444Z,88.84
2024-04-13T06:41:47.344Z,88.69
2024-04-13T06:44:15.135Z,88.74
2024-04-13T06:46:43.086Z,85.72
2024-04-13T06:49:10.983Z,85.32
2024-04-13T06:51:38.831Z,85.17
2024-04-13T06:54:06.796Z,84.26
2024-04-13T06:56:34.710Z,82.30
2024-04-13T06:59:04.094Z,82.15
2024-04-13T07:01:32.921Z,80.25
2024-04-13T07:04:01.180Z,76.67
2024-04-13T07:06:31.962Z,78.23
2024-04-13T07:09:01.631Z,78.98
2024-04-13T07:11:30.026Z,77.00
2024-04-13T07:13:58.790Z,78.81
2024-04-13T07:16:26.783Z,73.33
2024-04-13T07:18:54.741Z,69.17
2024-04-13T07:21:22.675Z,66.30
2024-04-13T07:23:50.543Z,68.07
2024-04-13T07:26:18.380Z,67.85
2024-04-13T07:28:46.165Z,61.82
2024-04-13T07:31:13.985Z,58.38
2024-04-13T07:33:42.025Z,61.59
2024-04-13T07:36:10.872Z,64.92
2024-04-13T07:38:38.794Z,62.96
2024-04-13T07:41:06.646Z,55.57
2024-04-13T07:43:34.497Z,52.13
2024-04-13T07:46:02.390Z,48.31
2024-04-13T07:48:30.330Z,45.15
2024-04-13T07:51:00.338Z,42.10
2024-04-13T07:53:32.325Z,40.66
2024-04-13T07:56:00.409Z,40.13
2024-04-13T07:58:28.263Z,38.73
2024-04-13T08:00:56.216Z,39.39
2024-04-13T08:03:25.199Z,37.25
2024-04-13T08:05:53.233Z,37.08
2024-04-13T08:08:21.059Z,37.67
2024-04-13T08:10:49.126Z,38.22
2024-04-13T08:13:17.375Z,36.41
2024-04-13T08:15:45.943Z,36.83
2024-04-13T08:18:15.803Z,36.97
2024-04-13T08:20:45.220Z,36.22
2024-04-13T08:23:13.111Z,34.45
2024-04-13T08:25:40.980Z,36.82
2024-04-13T08:28:08.760Z,36.69
2024-04-13T08:30:39.466Z,35.13
2024-04-13T08:33:07.368Z,37.15
2024-04-13T08:35:35.263Z,35.34
2024-04-13T08:38:03.337Z,35.45
2024-04-13T08:40:32.317Z,36.05
2024-04-13T08:43:05.140Z,34.20
2024-04-13T08:45:33.763Z,34.59
2024-04-13T08:48:03.134Z,35.42
2024-04-13T08:50:32.516Z,36.78
2024-04-13T08:53:01.001Z,37.03
2024-04-13T08:55:30.302Z,37.17
2024-04-13T08:57:59.541Z,35.73
2024-04-13T09:00:27.955Z,34.75
2024-04-13T09:02:58.285Z,35.68
2024-04-13T09:05:30.371Z,35.11
2024-04-13T09:07:58.244Z,34.48
2024-04-13T09:10:28.146Z,33.64
2024-04-13T09:12:56.319Z,34.41
2024-04-13T09:15:24.463Z,33.86
2024-04-13T09:17:56.699Z,33.32
2024-04-13T09:20:26.922Z,35.02
2024-04-13T09:22:56.140Z,34.35
2024-04-13T09:25:24.858Z,34.42
2024-04-13T09:28:06.535Z,34.03
2024-04-13T09:30:34.558Z,34.26
2024-04-13T09:33:08.224Z,35.29
2024-04-13T09:35:37.261Z,35.80
2024-04-13T09:38:05.486Z,35.49
2024-04-13T09:40:33.401Z,37.31
2024-04-13T09:43:01.661Z,37.68
2024-04-13T09:45:29.852Z,38.01
2024-04-13T09:48:01.434Z,37.70
2024-04-13T09:50:30.435Z,38.33
2024-04-13T09:53:02.663Z,38.14
2024-04-13T09:55:31.032Z,37.54
2024-04-13T09:58:00.035Z,36.69
2024-04-13T10:00:28.441Z,36.83
2024-04-13T10:02:56.674Z,36.57
2024-04-13T10:05:26.827Z,36.51
2024-04-13T10:07:55.980Z,35.51
2024-04-13T10:10:25.476Z,36.49
2024-04-13T10:12:57.073Z,37.06
2024-04-13T10:15:26.496Z,37.11
2024-04-13T10:17:56.064Z,37.76
2024-04-13T10:20:23.966Z,38.19
2024-04-13T10:22:59.966Z,38.88
2024-04-13T10:25:33.240Z,38.71
2024-04-13T10:28:13.129Z,38.42
2024-04-13T10:30:51.898Z,38.34
2024-04-13T10:33:25.249Z,37.42
2024-04-13T10:36:07.055Z,38.09
2024-04-13T10:38:37.304Z,38.03
2024-04-13T10:41:06.128Z,37.99
2024-04-13T10:43:34.113Z,37.62
2024-04-13T10:46:04.254Z,37.64
2024-04-13T10:48:34.609Z,37.32
2024-04-13T10:51:02.726Z,36.16
2024-04-13T10:53:31.029Z,37.55
2024-04-13T10:56:00.108Z,36.70
2024-04-13T10:58:33.968Z,35.77
2024-04-13T11:01:02.211Z,35.91
2024-04-13T11:03:31.337Z,36.62
2024-04-13T11:06:00.826Z,36.93
2024-04-13T11:08:29.277Z,37.54
2024-04-13T11:11:03.338Z,37.03
2024-04-13T11:13:32.006Z,36.29
2024-04-13T11:16:00.156Z,37.74
2024-04-13T11:18:28.329Z,37.21
2024-04-13T11:21:06.511Z,37.71
2024-04-13T11:23:36.839Z,37.65
2024-04-13T11:26:04.952Z,37.76
2024-04-13T11:28:34.662Z,37.84
2024-04-13T11:31:02.637Z,39.44
2024-04-13T11:33:31.833Z,38.89
2024-04-13T11:36:01.921Z,38.05
2024-04-13T11:38:35.931Z,37.85
2024-04-13T11:41:03.930Z,38.93
2024-04-13T11:43:32.182Z,39.50
2024-04-13T11:46:00.318Z,38.91
2024-04-13T11:48:31.795Z,39.45
2024-04-13T11:51:00.282Z,40.41
2024-04-13T11:53:28.502Z,39.35
2024-04-13T11:55:57.933Z,38.77
2024-04-13T11:58:26.296Z,39.80
2024-04-13T12:00:54.182Z,37.77
2024-04-13T12:03:22.081Z,37.57
2024-04-13T12:05:49.961Z,39.50
2024-04-13T12:08:17.917Z,39.91
2024-04-13T12:10:45.734Z,39.17
2024-04-13T12:13:13.562Z,38.38
2024-04-13T12:15:41.392Z,38.32
2024-04-13T12:18:09.373Z,38.75
2024-04-13T12:20:37.536Z,38.19
2024-04-13T12:23:05.606Z,38.00
2024-04-13T12:25:33.553Z,37.79
2024-04-13T12:28:01.640Z,38.71
2024-04-13T12:30:29.968Z,38.03
2024-04-13T12:32:57.969Z,38.74
2024-04-13T12:35:25.819Z,39.38
2024-04-13T12:37:55.247Z,39.84
2024-04-13T12:40:23.088Z,38.77
2024-04-13T12:42:51.046Z,40.42
2024-04-13T12:45:19.006Z,40.93
2024-04-13T12:47:46.911Z,39.79
2024-04-13T12:50:14.774Z,41.85
2024-04-13T12:52:42.593Z,40.81
2024-04-13T12:55:10.405Z,40.42
2024-04-13T12:57:38.385Z,41.69
2024-04-13T13:00:07.047Z,41.29
2024-04-13T13:02:35.021Z,40.88
2024-04-13T13:05:02.901Z,40.11
2024-04-13T13:07:30.734Z,40.86
2024-04-13T13:09:58.730Z,41.03
2024-04-13T13:12:26.712Z,41.55
2024-04-13T13:14:54.522Z,42.68
2024-04-13T13:17:22.413Z,42.18
2024-04-13T13:19:51.621Z,41.55
2024-04-13T13:22:20.400Z,42.26
2024-04-13T13:24:48.364Z,42.13
2024-04-13T13:27:16.289Z,41.94
2024-04-13T13:29:44.145Z,41.58
2024-04-13T13:32:12.023Z,41.61
2024-04-13T13:34:40.009Z,41.93
2024-04-13T13:37:07.877Z,41.88
2024-04-13T13:39:35.726Z,42.70
2024-04-13T13:42:04.543Z,41.62
2024-04-13T13:44:33.335Z,41.18
2024-04-13T13:47:01.205Z,40.68
2024-04-13T13:49:30.656Z,42.15
2024-04-13T13:51:58.523Z,42.62
2024-04-13T13:56:54.540Z,42.13
2024-04-13T13:59:22.361Z,42.60
2024-04-13T14:01:53.023Z,42.67
2024-04-13T14:04:21.078Z,42.53
2024-04-13T14:06:49.040Z,43.08
2024-04-13T14:09:17.018Z,43.75
2024-04-13T14:11:45.007Z,43.52
2024-04-13T14:14:13.730Z,43.69
2024-04-13T14:16:41.988Z,43.72
2024-04-13T14:19:09.833Z,44.61
2024-04-13T14:21:38.072Z,44.43
2024-04-13T14:24:06.978Z,44.13
2024-04-13T14:26:35.403Z,44.28
2024-04-13T14:29:03.282Z,43.51
2024-04-13T14:31:31.249Z,44.37
2024-04-13T14:33:59.108Z,43.99
2024-04-13T14:36:26.939Z,44.97
2024-04-13T14:38:55.904Z,44.93
2024-04-13T14:41:23.764Z,45.07
2024-04-13T14:43:53.066Z,45.02
2024-04-13T14:46:20.889Z,45.48
2024-04-13T14:48:48.905Z,45.20
2024-04-13T14:51:16.873Z,44.90
2024-04-13T14:53:44.760Z,45.11
2024-04-13T14:56:12.931Z,44.93
2024-04-13T14:58:40.761Z,45.04
2024-04-13T15:01:08.958Z,44.56
2024-04-13T15:03:37.668Z,44.59
2024-04-13T15:06:05.641Z,44.98
2024-04-13T15:08:33.547Z,44.91
2024-04-13T15:11:01.578Z,45.01
2024-04-13T15:13:29.594Z,44.13
2024-04-13T15:15:57.498Z,44.17
2024-04-13T15:18:25.521Z,45.14
2024-04-13T15:20:53.462Z,44.72
2024-04-13T15:23:21.281Z,45.45
2024-04-13T15:25:49.109Z,45.53
2024-04-13T15:28:16.932Z,45.01
2024-04-13T15:30:44.794Z,45.04
2024-04-13T15:33:12.737Z,44.68
2024-04-13T15:35:40.711Z,44.70
2024-04-13T15:38:08.547Z,45.11
2024-04-13T15:40:36.424Z,45.17
2024-04-13T15:43:04.289Z,44.75
2024-04-13T15:45:32.236Z,45.48
2024-04-13T15:48:00.808Z,45.11
2024-04-13T15:50:28.686Z,44.89
2024-04-13T15:52:56.535Z,44.98
2024-04-13T15:55:24.429Z,44.92
2024-04-13T15:57:52.344Z,44.87
2024-04-13T16:00:22.339Z,45.76
2024-04-13T16:02:50.282Z,45.37
2024-04-13T16:05:18.142Z,45.60
2024-04-13T16:07:45.955Z,45.13
2024-04-13T16:10:14.008Z,45.73
2024-04-13T16:12:41.984Z,45.66
2024-04-13T16:15:12.700Z,46.37
2024-04-13T16:17:40.687Z,46.61
2024-04-13T16:20:09.439Z,47.07
2024-04-13T16:22:37.233Z,47.56
2024-04-13T16:25:05.436Z,47.53
2024-04-13T16:27:33.271Z,47.28
2024-04-13T16:30:01.125Z,47.82
2024-04-13T16:32:29.001Z,48.75
2024-04-13T16:34:56.862Z,48.33
2024-04-13T16:37:24.691Z,48.28
2024-04-13T16:39:52.625Z,49.07
2024-04-13T16:42:22.758Z,50.21
2024-04-13T16:44:50.571Z,52.25
2024-04-13T16:47:18.964Z,52.30
2024-04-13T16:49:46.901Z,49.59
2024-04-13T16:52:14.861Z,46.96
2024-04-13T16:54:42.788Z,47.64
2024-04-13T16:57:10.641Z,50.91
2024-04-13T16:59:38.597Z,46.77
2024-04-13T17:02:06.554Z,48.03
2024-04-13T17:04:34.843Z,48.74
2024-04-13T17:07:02.658Z,49.80
2024-04-13T17:09:31.599Z,48.92
2024-04-13T17:11:59.555Z,47.69
2024-04-13T17:14:27.453Z,49.95
2024-04-13T17:16:55.265Z,51.73
2024-04-13T17:19:23.101Z,51.94
2024-04-13T17:21:51.049Z,51.61
2024-04-13T17:24:18.948Z,52.15
2024-04-13T17:26:46.841Z,51.18
2024-04-13T17:29:14.680Z,50.63
2024-04-13T17:31:43.309Z,52.40
2024-04-13T17:34:11.088Z,51.44
2024-04-13T17:36:38.985Z,48.87
2024-04-13T17:39:08.226Z,51.22
2024-04-13T17:41:38.447Z,52.47
2024-04-13T17:44:07.323Z,51.56
2024-04-13T17:46:36.086Z,53.28
2024-04-13T17:49:04.017Z,54.81
2024-04-13T17:51:31.942Z,51.55
2024-04-13T17:53:59.806Z,50.95
2024-04-13T17:56:27.685Z,50.32
2024-04-13T17:58:55.491Z,51.51
2024-04-13T18:01:23.481Z,51.08
2024-04-13T18:03:51.759Z,51.38
2024-04-13T18:06:19.783Z,50.42
2024-04-13T18:08:47.705Z,51.25
2024-04-13T18:11:15.618Z,52.62
2024-04-13T18:13:43.443Z,56.52
2024-04-13T18:16:13.400Z,52.84
2024-04-13T18:18:41.375Z,55.55
2024-04-13T18:21:09.376Z,55.46
2024-04-13T18:23:37.266Z,54.47
2024-04-13T18:26:05.305Z,55.40
2024-04-13T18:28:35.689Z,55.20
2024-04-13T18:31:05.094Z,53.84
2024-04-13T18:33:33.104Z,53.17
2024-04-13T18:36:01.009Z,57.45
2024-04-13T18:38:35.500Z,53.96
2024-04-13T18:41:09.042Z,54.82
2024-04-13T18:43:36.842Z,55.01
2024-04-13T18:46:06.183Z,56.58
2024-04-13T18:48:35.089Z,56.41
2024-04-13T18:51:03.083Z,57.54
2024-04-13T18:53:32.118Z,59.20
2024-04-13T18:56:00.078Z,55.13
2024-04-13T18:58:29.086Z,55.68
2024-04-13T19:00:56.986Z,59.76
2024-04-13T19:03:26.461Z,58.63
2024-04-13T19:05:54.576Z,59.85
2024-04-13T19:08:24.276Z,59.13
2024-04-13T19:10:55.528Z,59.52
2024-04-13T19:13:23.391Z,59.81
2024-04-13T19:16:07.591Z,60.60
2024-04-13T19:18:38.614Z,61.49
2024-04-13T19:21:10.151Z,60.75
2024-04-13T19:23:38.513Z,62.47
2024-04-13T19:26:06.403Z,65.43
2024-04-13T19:28:34.256Z,64.07
2024-04-13T19:31:02.376Z,63.02
2024-04-13T19:33:30.538Z,62.17
2024-04-13T19:35:58.468Z,64.29
2024-04-13T19:38:26.872Z,62.61
2024-04-13T19:40:54.769Z,63.34
2024-04-13T19:43:23.242Z,63.74
2024-04-13T19:45:51.279Z,66.00
2024-04-13T19:48:19.357Z,63.72
2024-04-13T19:50:47.333Z,65.67
2024-04-13T19:53:15.232Z,65.05
2024-04-13T19:55:43.078Z,65.83
2024-04-13T19:58:10.902Z,68.06
2024-04-13T20:00:41.904Z,68.68
2024-04-13T20:03:09.848Z,67.60
2024-04-13T20:05:37.989Z,67.37
2024-04-13T20:08:06.430Z,71.37
2024-04-13T20:10:34.460Z,69.87
2024-04-13T20:13:02.949Z,70.66
2024-04-13T20:15:49.703Z,70.38
2024-04-13T20:18:36.658Z,72.51
2024-04-13T20:21:04.736Z,70.08
2024-04-13T20:23:32.630Z,69.97
2024-04-13T20:26:00.586Z,68.74
2024-04-13T20:28:28.706Z,69.58
2024-04-13T20:30:56.958Z,69.66
2024-04-13T20:33:24.881Z,72.79
2024-04-13T20:35:52.812Z,71.43
2024-04-13T20:38:21.271Z,70.43
2024-04-13T20:40:49.191Z,72.51
2024-04-13T20:43:17.018Z,72.18
2024-04-13T20:45:46.197Z,73.34
2024-04-13T20:48:15.079Z,71.71
2024-04-13T20:50:43.107Z,71.96
2024-04-13T20:53:11.164Z,72.03
2024-04-13T20:55:38.997Z,72.48
2024-04-13T20:58:06.951Z,73.04
2024-04-13T21:00:38.783Z,74.19
2024-04-13T21:03:07.156Z,73.61
2024-04-13T21:05:35.854Z,72.07
2024-04-13T21:08:04.374Z,73.14
2024-04-13T21:10:32.455Z,72.81
2024-04-13T21:13:01.873Z,72.94
2024-04-13T21:15:36.171Z,73.79
2024-04-13T21:18:05.240Z,73.50
2024-04-13T21:20:33.168Z,72.80
2024-04-13T21:23:01.178Z,73.34
2024-04-13T21:25:29.257Z,73.40
2024-04-13T21:27:58.823Z,73.87
2024-04-13T21:30:26.756Z,72.79
2024-04-13T21:32:54.702Z,73.70
2024-04-13T21:35:22.836Z,74.84
2024-04-13T21:37:57.671Z,74.12
2024-04-13T21:40:28.884Z,74.90
2024-04-13T21:42:56.892Z,75.07
2024-04-13T21:45:24.856Z,76.34
2024-04-13T21:47:52.764Z,75.68
2024-04-13T21:50:21.222Z,77.45
2024-04-13T21:52:49.103Z,76.11
2024-04-13T21:55:17.116Z,75.00
2024-04-13T21:57:45.025Z,74.93
2024-04-13T22:00:15.963Z,75.79
2024-04-13T22:02:43.969Z,75.34
2024-04-13T22:05:11.965Z,77.06
2024-04-13T22:07:39.764Z,74.69
2024-04-13T22:10:09.082Z,74.23
2024-04-13T22:12:36.982Z,76.05
2024-04-13T22:15:05.885Z,75.28
2024-04-13T22:17:33.820Z,75.29
2024-04-13T22:20:01.863Z,75.87
2024-04-13T22:22:29.749Z,75.28
2024-04-13T22:24:57.624Z,76.68
2024-04-13T22:27:25.637Z,75.05
2024-04-13T22:29:55.379Z,77.45
2024-04-13T22:32:23.397Z,74.81
2024-04-13T22:34:51.545Z,75.65
2024-04-13T22:37:20.091Z,76.35
2024-04-13T22:39:47.968Z,76.20
2024-04-13T22:42:15.936Z,76.52
2024-04-13T22:44:43.780Z,77.19
2024-04-13T22:47:12.944Z,75.82
2024-04-13T22:49:40.886Z,77.75
2024-04-13T22:52:08.833Z,77.84
2024-04-13T22:54:36.738Z,77.07
2024-04-13T22:57:05.253Z,78.30
2024-04-13T22:59:34.067Z,76.76
2024-04-13T23:02:01.987Z,78.25
2024-04-13T23:04:29.972Z,77.68
2024-04-13T23:06:57.903Z,76.94
2024-04-13T23:09:25.892Z,76.86
2024-04-13T23:11:53.796Z,78.40
2024-04-13T23:14:21.675Z,78.09
2024-04-13T23:16:49.554Z,76.37
2024-04-13T23:19:17.427Z,77.32
2024-04-13T23:21:45.410Z,76.99
2024-04-13T23:24:13.297Z,77.59
2024-04-13T23:26:41.694Z,77.65
2024-04-13T23:29:09.633Z,78.64
2024-04-13T23:31:42.645Z,79.14
2024-04-13T23:34:10.900Z,77.70
2024-04-13T23:36:38.948Z,77.66
2024-04-13T23:39:08.046Z,78.22
2024-04-13T23:41:36.061Z,78.80
2024-04-13T23:44:10.174Z,78.07
2024-04-13T23:46:38.102Z,79.53
2024-04-13T23:49:05.945Z,79.26
2024-04-13T23:51:33.802Z,79.84
2024-04-13T23:54:01.686Z,79.27
2024-04-13T23:56:29.491Z,80.26
2024-04-13T23:58:57.966Z,79.95
